sensor_id;sensor_type;location;lat;lon;timestamp;temperature;humidity
22153;DHT22;11242;50.536;12.688;2023-04-24T00:00:40;11.00;99.90
22153;DHT22;11242;50.536;12.688;2023-04-24T00:03:06;10.90;99.90
22153;DHT22;11242;50.536;12.688;2023-04-24T00:05:32;10.90;99.90
22153;DHT22;11242;50.536;12.688;2023-04-24T00:07:58;10.90;99.90
22153;DHT22;11242;50.536;12.688;2023-04-24T00:10:23;10.80;99.90
22153;DHT22;11242;50.536;12.688;2023-04-24T00:12:49;10.70;99.90
22153;DHT22;11242;50.536;12.688;2023-04-24T00:15:15;10.60;99.90
22153;DHT22;11242;50.536;12.688;2023-04-24T00:17:40;10.60;99.90
22153;DHT22;11242;50.536;12.688;2023-04-24T00:20:06;10.60;99.90
22153;DHT22;11242;50.536;12.688;2023-04-24T00:22:32;10.60;99.90
22153;DHT22;11242;50.536;12.688;2023-04-24T00:24:58;10.60;99.90
22153;DHT22;11242;50.536;12.688;2023-04-24T00:27:24;10.60;99.90
22153;DHT22;11242;50.536;12.688;2023-04-24T00:29:50;10.60;99.90
22153;DHT22;11242;50.536;12.688;2023-04-24T00:32:15;10.60;99.90
22153;DHT22;11242;50.536;12.688;2023-04-24T00:34:41;10.50;99.90
22153;DHT22;11242;50.536;12.688;2023-04-24T00:37:07;10.50;99.90
22153;DHT22;11242;50.536;12.688;2023-04-24T00:39:33;10.40;99.90
22153;DHT22;11242;50.536;12.688;2023-04-24T00:41:58;10.40;99.90
22153;DHT22;11242;50.536;12.688;2023-04-24T00:44:24;10.30;99.90
22153;DHT22;11242;50.536;12.688;2023-04-24T00:46:50;10.20;99.90
22153;DHT22;11242;50.536;12.688;2023-04-24T00:49:20;10.20;99.90
22153;DHT22;11242;50.536;12.688;2023-04-24T00:51:46;10.10;99.90
22153;DHT22;11242;50.536;12.688;2023-04-24T00:54:16;10.10;99.90
22153;DHT22;11242;50.536;12.688;2023-04-24T00:56:42;10.10;99.90
22153;DHT22;11242;50.536;12.688;2023-04-24T00:59:09;10.10;99.90
22153;DHT22;11242;50.536;12.688;2023-04-24T01:01:35;10.10;99.90
22153;DHT22;11242;50.536;12.688;2023-04-24T01:04:02;10.10;99.90
22153;DHT22;11242;50.536;12.688;2023-04-24T01:06:29;10.10;99.90
22153;DHT22;11242;50.536;12.688;2023-04-24T01:08:57;10.20;99.90
22153;DHT22;11242;50.536;12.688;2023-04-24T01:11:25;10.10;99.90
22153;DHT22;11242;50.536;12.688;2023-04-24T01:13:51;10.20;99.90
22153;DHT22;11242;50.536;12.688;2023-04-24T01:16:17;10.10;99.90
22153;DHT22;11242;50.536;12.688;2023-04-24T01:18:45;10.10;99.90
22153;DHT22;11242;50.536;12.688;2023-04-24T01:21:14;10.10;99.90
22153;DHT22;11242;50.536;12.688;2023-04-24T01:23:40;10.10;99.90
22153;DHT22;11242;50.536;12.688;2023-04-24T01:26:06;10.10;99.90
22153;DHT22;11242;50.536;12.688;2023-04-24T01:28:31;10.10;99.90
22153;DHT22;11242;50.536;12.688;2023-04-24T01:30:57;10.10;99.90
22153;DHT22;11242;50.536;12.688;2023-04-24T01:33:23;10.20;99.90
22153;DHT22;11242;50.536;12.688;2023-04-24T01:35:49;10.20;99.90
22153;DHT22;11242;50.536;12.688;2023-04-24T01:38:14;10.20;99.90
22153;DHT22;11242;50.536;12.688;2023-04-24T01:40:40;10.20;99.90
22153;DHT22;11242;50.536;12.688;2023-04-24T01:43:06;10.20;99.90
22153;DHT22;11242;50.536;12.688;2023-04-24T01:45:32;10.20;99.90
22153;DHT22;11242;50.536;12.688;2023-04-24T01:47:57;10.20;99.90
22153;DHT22;11242;50.536;12.688;2023-04-24T01:50:24;10.20;99.90
22153;DHT22;11242;50.536;12.688;2023-04-24T01:52:49;10.10;99.90
22153;DHT22;11242;50.536;12.688;2023-04-24T01:55:15;10.10;99.90
22153;DHT22;11242;50.536;12.688;2023-04-24T01:57:41;10.10;99.90
22153;DHT22;11242;50.536;12.688;2023-04-24T02:00:07;10.00;99.90
22153;DHT22;11242;50.536;12.688;2023-04-24T02:02:41;10.00;99.90
22153;DHT22;11242;50.536;12.688;2023-04-24T02:05:08;9.90;99.90
22153;DHT22;11242;50.536;12.688;2023-04-24T02:07:35;9.90;99.90
22153;DHT22;11242;50.536;12.688;2023-04-24T02:10:01;9.90;99.90
22153;DHT22;11242;50.536;12.688;2023-04-24T02:12:27;9.90;99.90
22153;DHT22;11242;50.536;12.688;2023-04-24T02:14:52;9.90;99.90
22153;DHT22;11242;50.536;12.688;2023-04-24T02:17:18;9.80;99.90
22153;DHT22;11242;50.536;12.688;2023-04-24T02:19:44;9.70;99.90
22153;DHT22;11242;50.536;12.688;2023-04-24T02:22:10;9.60;99.90
22153;DHT22;11242;50.536;12.688;2023-04-24T02:24:36;9.50;99.90
22153;DHT22;11242;50.536;12.688;2023-04-24T02:27:02;9.50;99.90
22153;DHT22;11242;50.536;12.688;2023-04-24T02:29:28;9.40;99.90
22153;DHT22;11242;50.536;12.688;2023-04-24T02:31:54;9.40;99.90
22153;DHT22;11242;50.536;12.688;2023-04-24T02:34:19;9.30;99.90
22153;DHT22;11242;50.536;12.688;2023-04-24T02:36:45;9.20;99.90
22153;DHT22;11242;50.536;12.688;2023-04-24T02:39:11;9.20;99.90
22153;DHT22;11242;50.536;12.688;2023-04-24T02:41:38;9.20;99.90
22153;DHT22;11242;50.536;12.688;2023-04-24T02:44:03;9.20;99.90
22153;DHT22;11242;50.536;12.688;2023-04-24T02:46:29;9.20;99.90
22153;DHT22;11242;50.536;12.688;2023-04-24T02:48:55;9.20;99.90
22153;DHT22;11242;50.536;12.688;2023-04-24T02:51:20;9.30;99.90
22153;DHT22;11242;50.536;12.688;2023-04-24T02:53:46;9.40;99.90
22153;DHT22;11242;50.536;12.688;2023-04-24T02:56:11;9.50;99.90
22153;DHT22;11242;50.536;12.688;2023-04-24T02:58:40;9.50;99.90
22153;DHT22;11242;50.536;12.688;2023-04-24T03:01:06;9.50;99.90
22153;DHT22;11242;50.536;12.688;2023-04-24T03:03:31;9.40;99.90
22153;DHT22;11242;50.536;12.688;2023-04-24T03:05:57;9.30;99.90
22153;DHT22;11242;50.536;12.688;2023-04-24T03:08:23;9.20;99.90
22153;DHT22;11242;50.536;12.688;2023-04-24T03:10:49;9.20;99.90
22153;DHT22;11242;50.536;12.688;2023-04-24T03:13:17;9.10;99.90
22153;DHT22;11242;50.536;12.688;2023-04-24T03:15:43;9.00;99.90
22153;DHT22;11242;50.536;12.688;2023-04-24T03:18:09;9.00;99.90
22153;DHT22;11242;50.536;12.688;2023-04-24T03:20:34;9.00;99.90
22153;DHT22;11242;50.536;12.688;2023-04-24T03:23:02;9.00;99.90
22153;DHT22;11242;50.536;12.688;2023-04-24T03:25:28;9.00;99.90
22153;DHT22;11242;50.536;12.688;2023-04-24T03:27:54;9.00;99.90
22153;DHT22;11242;50.536;12.688;2023-04-24T03:30:43;9.00;99.90
22153;DHT22;11242;50.536;12.688;2023-04-24T03:33:09;8.90;99.90
22153;DHT22;11242;50.536;12.688;2023-04-24T03:35:39;9.00;99.90
22153;DHT22;11242;50.536;12.688;2023-04-24T03:38:08;9.00;99.90
22153;DHT22;11242;50.536;12.688;2023-04-24T03:41:12;9.00;99.90
22153;DHT22;11242;50.536;12.688;2023-04-24T03:43:43;9.00;99.90
22153;DHT22;11242;50.536;12.688;2023-04-24T03:46:09;9.00;99.90
22153;DHT22;11242;50.536;12.688;2023-04-24T03:48:39;9.10;99.90
22153;DHT22;11242;50.536;12.688;2023-04-24T03:51:06;9.20;99.90
22153;DHT22;11242;50.536;12.688;2023-04-24T03:53:33;9.10;99.90
22153;DHT22;11242;50.536;12.688;2023-04-24T03:56:00;9.10;99.90
22153;DHT22;11242;50.536;12.688;2023-04-24T03:58:26;9.20;99.90
22153;DHT22;11242;50.536;12.688;2023-04-24T04:00:53;9.10;99.90
22153;DHT22;11242;50.536;12.688;2023-04-24T04:03:41;9.10;99.90
22153;DHT22;11242;50.536;12.688;2023-04-24T04:06:07;9.10;99.90
22153;DHT22;11242;50.536;12.688;2023-04-24T04:08:32;9.10;99.90
22153;DHT22;11242;50.536;12.688;2023-04-24T04:10:58;9.10;99.90
22153;DHT22;11242;50.536;12.688;2023-04-24T04:13:24;9.00;99.90
22153;DHT22;11242;50.536;12.688;2023-04-24T04:15:50;9.00;99.90
22153;DHT22;11242;50.536;12.688;2023-04-24T04:18:16;9.00;99.90
22153;DHT22;11242;50.536;12.688;2023-04-24T04:20:41;9.00;99.90
22153;DHT22;11242;50.536;12.688;2023-04-24T04:23:08;9.10;99.90
22153;DHT22;11242;50.536;12.688;2023-04-24T04:25:49;9.10;99.90
22153;DHT22;11242;50.536;12.688;2023-04-24T04:28:18;9.10;99.90
22153;DHT22;11242;50.536;12.688;2023-04-24T04:30:46;9.10;99.90
22153;DHT22;11242;50.536;12.688;2023-04-24T04:33:12;9.10;99.90
22153;DHT22;11242;50.536;12.688;2023-04-24T04:35:38;9.10;99.90
22153;DHT22;11242;50.536;12.688;2023-04-24T04:38:04;9.10;99.90
22153;DHT22;11242;50.536;12.688;2023-04-24T04:40:48;9.20;99.90
22153;DHT22;11242;50.536;12.688;2023-04-24T04:43:16;9.30;99.90
22153;DHT22;11242;50.536;12.688;2023-04-24T04:45:48;9.40;99.90
22153;DHT22;11242;50.536;12.688;2023-04-24T04:48:35;9.50;99.90
22153;DHT22;11242;50.536;12.688;2023-04-24T04:51:04;9.50;99.90
22153;DHT22;11242;50.536;12.688;2023-04-24T04:53:30;9.60;99.90
22153;DHT22;11242;50.536;12.688;2023-04-24T04:55:56;9.70;99.90
22153;DHT22;11242;50.536;12.688;2023-04-24T04:58:26;9.80;99.90
22153;DHT22;11242;50.536;12.688;2023-04-24T05:00:55;9.90;99.90
22153;DHT22;11242;50.536;12.688;2023-04-24T05:03:30;10.00;99.90
22153;DHT22;11242;50.536;12.688;2023-04-24T05:06:01;10.10;99.90
22153;DHT22;11242;50.536;12.688;2023-04-24T05:08:29;10.10;99.90
22153;DHT22;11242;50.536;12.688;2023-04-24T05:10:55;10.10;99.90
22153;DHT22;11242;50.536;12.688;2023-04-24T05:13:21;10.10;99.90
22153;DHT22;11242;50.536;12.688;2023-04-24T05:15:46;10.10;99.90
22153;DHT22;11242;50.536;12.688;2023-04-24T05:18:14;10.10;99.90
22153;DHT22;11242;50.536;12.688;2023-04-24T05:20:41;10.20;99.90
22153;DHT22;11242;50.536;12.688;2023-04-24T05:23:09;10.20;99.90
22153;DHT22;11242;50.536;12.688;2023-04-24T05:25:37;10.30;99.90
22153;DHT22;11242;50.536;12.688;2023-04-24T05:28:08;10.30;99.90
22153;DHT22;11242;50.536;12.688;2023-04-24T05:30:33;10.30;99.90
22153;DHT22;11242;50.536;12.688;2023-04-24T05:33:00;10.40;99.90
22153;DHT22;11242;50.536;12.688;2023-04-24T05:35:25;10.40;99.90
22153;DHT22;11242;50.536;12.688;2023-04-24T05:37:51;10.50;99.90
22153;DHT22;11242;50.536;12.688;2023-04-24T05:40:17;10.50;99.90
22153;DHT22;11242;50.536;12.688;2023-04-24T05:42:42;10.60;99.90
22153;DHT22;11242;50.536;12.688;2023-04-24T05:45:08;10.60;99.90
22153;DHT22;11242;50.536;12.688;2023-04-24T05:47:36;10.70;99.90
22153;DHT22;11242;50.536;12.688;2023-04-24T05:50:02;10.70;99.90
22153;DHT22;11242;50.536;12.688;2023-04-24T05:52:28;10.80;99.90
22153;DHT22;11242;50.536;12.688;2023-04-24T05:54:54;10.80;99.90
22153;DHT22;11242;50.536;12.688;2023-04-24T05:57:23;10.90;99.90
22153;DHT22;11242;50.536;12.688;2023-04-24T05:59:54;11.10;99.90
22153;DHT22;11242;50.536;12.688;2023-04-24T06:02:21;11.10;99.90
22153;DHT22;11242;50.536;12.688;2023-04-24T06:04:47;11.00;99.90
22153;DHT22;11242;50.536;12.688;2023-04-24T06:07:13;11.00;99.90
22153;DHT22;11242;50.536;12.688;2023-04-24T06:09:40;11.00;99.90
22153;DHT22;11242;50.536;12.688;2023-04-24T06:12:06;10.90;99.90
22153;DHT22;11242;50.536;12.688;2023-04-24T06:14:46;11.00;99.90
22153;DHT22;11242;50.536;12.688;2023-04-24T06:17:16;11.00;99.90
22153;DHT22;11242;50.536;12.688;2023-04-24T06:19:42;11.00;99.90
22153;DHT22;11242;50.536;12.688;2023-04-24T06:22:08;11.00;99.90
22153;DHT22;11242;50.536;12.688;2023-04-24T06:24:34;11.00;99.90
22153;DHT22;11242;50.536;12.688;2023-04-24T06:26:59;11.10;99.90
22153;DHT22;11242;50.536;12.688;2023-04-24T06:29:26;11.10;99.90
22153;DHT22;11242;50.536;12.688;2023-04-24T06:31:52;11.00;99.90
22153;DHT22;11242;50.536;12.688;2023-04-24T06:34:18;11.00;99.90
22153;DHT22;11242;50.536;12.688;2023-04-24T06:36:43;11.00;99.90
22153;DHT22;11242;50.536;12.688;2023-04-24T06:39:09;11.00;99.90
22153;DHT22;11242;50.536;12.688;2023-04-24T06:41:35;11.00;99.90
22153;DHT22;11242;50.536;12.688;2023-04-24T06:44:01;11.00;99.90
22153;DHT22;11242;50.536;12.688;2023-04-24T06:46:26;11.00;99.90
22153;DHT22;11242;50.536;12.688;2023-04-24T06:48:53;11.10;99.90
22153;DHT22;11242;50.536;12.688;2023-04-24T06:51:26;11.10;99.90
22153;DHT22;11242;50.536;12.688;2023-04-24T06:53:53;11.00;99.90
22153;DHT22;11242;50.536;12.688;2023-04-24T06:56:19;11.20;99.90
22153;DHT22;11242;50.536;12.688;2023-04-24T06:58:45;11.20;99.90
22153;DHT22;11242;50.536;12.688;2023-04-24T07:01:11;11.20;99.90
22153;DHT22;11242;50.536;12.688;2023-04-24T07:03:38;11.10;99.90
22153;DHT22;11242;50.536;12.688;2023-04-24T07:06:04;11.00;99.90
22153;DHT22;11242;50.536;12.688;2023-04-24T07:08:30;11.00;99.90
22153;DHT22;11242;50.536;12.688;2023-04-24T07:10:56;11.00;99.90
22153;DHT22;11242;50.536;12.688;2023-04-24T07:13:22;11.00;99.90
22153;DHT22;11242;50.536;12.688;2023-04-24T07:15:48;11.10;99.90
22153;DHT22;11242;50.536;12.688;2023-04-24T07:18:16;11.10;99.90
22153;DHT22;11242;50.536;12.688;2023-04-24T07:20:42;11.10;99.90
22153;DHT22;11242;50.536;12.688;2023-04-24T07:23:07;11.20;99.90
22153;DHT22;11242;50.536;12.688;2023-04-24T07:25:33;11.20;99.90
22153;DHT22;11242;50.536;12.688;2023-04-24T07:27:59;11.30;99.90
22153;DHT22;11242;50.536;12.688;2023-04-24T07:30:25;11.40;99.90
22153;DHT22;11242;50.536;12.688;2023-04-24T07:32:51;11.40;99.90
22153;DHT22;11242;50.536;12.688;2023-04-24T07:35:16;11.50;99.90
22153;DHT22;11242;50.536;12.688;2023-04-24T07:37:42;11.60;99.90
22153;DHT22;11242;50.536;12.688;2023-04-24T07:40:12;11.80;99.90
22153;DHT22;11242;50.536;12.688;2023-04-24T07:42:38;11.90;99.90
22153;DHT22;11242;50.536;12.688;2023-04-24T07:45:04;12.20;99.90
22153;DHT22;11242;50.536;12.688;2023-04-24T07:47:30;12.20;99.90
22153;DHT22;11242;50.536;12.688;2023-04-24T07:49:55;12.30;99.90
22153;DHT22;11242;50.536;12.688;2023-04-24T07:52:21;12.30;99.90
22153;DHT22;11242;50.536;12.688;2023-04-24T07:54:47;12.50;99.90
22153;DHT22;11242;50.536;12.688;2023-04-24T07:57:12;12.60;99.90
22153;DHT22;11242;50.536;12.688;2023-04-24T07:59:39;12.60;99.90
22153;DHT22;11242;50.536;12.688;2023-04-24T08:02:04;12.70;99.90
22153;DHT22;11242;50.536;12.688;2023-04-24T08:04:31;12.60;99.90
22153;DHT22;11242;50.536;12.688;2023-04-24T08:06:57;12.60;99.90
22153;DHT22;11242;50.536;12.688;2023-04-24T08:09:22;12.70;99.90
22153;DHT22;11242;50.536;12.688;2023-04-24T08:11:48;12.70;99.90
22153;DHT22;11242;50.536;12.688;2023-04-24T08:14:14;12.70;99.90
22153;DHT22;11242;50.536;12.688;2023-04-24T08:16:40;12.80;99.90
22153;DHT22;11242;50.536;12.688;2023-04-24T08:19:06;12.90;99.90
22153;DHT22;11242;50.536;12.688;2023-04-24T08:21:32;13.00;99.90
22153;DHT22;11242;50.536;12.688;2023-04-24T08:23:57;13.10;99.90
22153;DHT22;11242;50.536;12.688;2023-04-24T08:26:23;13.30;99.90
22153;DHT22;11242;50.536;12.688;2023-04-24T08:28:49;13.50;99.90
22153;DHT22;11242;50.536;12.688;2023-04-24T08:31:14;13.90;99.90
22153;DHT22;11242;50.536;12.688;2023-04-24T08:33:40;13.90;99.90
22153;DHT22;11242;50.536;12.688;2023-04-24T08:36:06;14.20;99.90
22153;DHT22;11242;50.536;12.688;2023-04-24T08:38:33;14.60;99.90
22153;DHT22;11242;50.536;12.688;2023-04-24T08:41:00;14.90;99.90
22153;DHT22;11242;50.536;12.688;2023-04-24T08:43:26;15.10;99.90
22153;DHT22;11242;50.536;12.688;2023-04-24T08:45:53;15.20;99.90
22153;DHT22;11242;50.536;12.688;2023-04-24T08:48:21;15.00;99.90
22153;DHT22;11242;50.536;12.688;2023-04-24T08:50:49;15.10;99.90
22153;DHT22;11242;50.536;12.688;2023-04-24T08:53:15;14.80;99.90
22153;DHT22;11242;50.536;12.688;2023-04-24T08:55:43;14.50;99.90
22153;DHT22;11242;50.536;12.688;2023-04-24T08:58:10;14.00;99.90
22153;DHT22;11242;50.536;12.688;2023-04-24T09:00:36;13.60;99.90
22153;DHT22;11242;50.536;12.688;2023-04-24T09:03:04;13.30;99.90
22153;DHT22;11242;50.536;12.688;2023-04-24T09:05:31;13.10;99.90
22153;DHT22;11242;50.536;12.688;2023-04-24T09:07:59;13.10;99.90
22153;DHT22;11242;50.536;12.688;2023-04-24T09:10:27;13.30;99.90
22153;DHT22;11242;50.536;12.688;2023-04-24T09:12:56;13.40;99.90
22153;DHT22;11242;50.536;12.688;2023-04-24T09:15:24;13.70;99.90
22153;DHT22;11242;50.536;12.688;2023-04-24T09:17:50;13.90;99.90
22153;DHT22;11242;50.536;12.688;2023-04-24T09:20:15;14.30;99.90
22153;DHT22;11242;50.536;12.688;2023-04-24T09:22:42;14.40;99.90
22153;DHT22;11242;50.536;12.688;2023-04-24T09:25:09;14.70;99.90
22153;DHT22;11242;50.536;12.688;2023-04-24T09:27:41;15.00;99.90
22153;DHT22;11242;50.536;12.688;2023-04-24T09:30:08;15.20;99.90
22153;DHT22;11242;50.536;12.688;2023-04-24T09:32:34;15.20;99.90
22153;DHT22;11242;50.536;12.688;2023-04-24T09:37:45;15.20;99.90
22153;DHT22;11242;50.536;12.688;2023-04-24T09:42:53;14.90;99.90
22153;DHT22;11242;50.536;12.688;2023-04-24T09:45:20;15.10;99.90
22153;DHT22;11242;50.536;12.688;2023-04-24T09:47:45;15.30;99.90
22153;DHT22;11242;50.536;12.688;2023-04-24T09:50:15;14.90;99.90
22153;DHT22;11242;50.536;12.688;2023-04-24T09:52:46;14.70;99.90
22153;DHT22;11242;50.536;12.688;2023-04-24T09:55:20;14.50;99.90
22153;DHT22;11242;50.536;12.688;2023-04-24T09:57:49;14.70;99.90
22153;DHT22;11242;50.536;12.688;2023-04-24T10:00:21;14.80;99.90
22153;DHT22;11242;50.536;12.688;2023-04-24T10:03:00;14.70;99.90
22153;DHT22;11242;50.536;12.688;2023-04-24T10:05:36;14.70;99.90
22153;DHT22;11242;50.536;12.688;2023-04-24T10:08:04;14.60;99.90
22153;DHT22;11242;50.536;12.688;2023-04-24T10:10:31;14.50;99.90
22153;DHT22;11242;50.536;12.688;2023-04-24T10:12:57;14.80;99.90
22153;DHT22;11242;50.536;12.688;2023-04-24T10:15:23;15.30;99.90
22153;DHT22;11242;50.536;12.688;2023-04-24T10:17:50;15.60;99.90
22153;DHT22;11242;50.536;12.688;2023-04-24T10:20:24;15.70;99.90
22153;DHT22;11242;50.536;12.688;2023-04-24T10:22:52;15.90;99.90
22153;DHT22;11242;50.536;12.688;2023-04-24T10:25:20;16.00;98.10
22153;DHT22;11242;50.536;12.688;2023-04-24T10:27:46;16.00;98.10
22153;DHT22;11242;50.536;12.688;2023-04-24T10:30:13;15.80;97.90
22153;DHT22;11242;50.536;12.688;2023-04-24T10:32:39;15.50;98.00
22153;DHT22;11242;50.536;12.688;2023-04-24T10:35:07;15.40;98.70
22153;DHT22;11242;50.536;12.688;2023-04-24T10:38:01;15.40;99.10
22153;DHT22;11242;50.536;12.688;2023-04-24T10:40:34;15.40;99.30
22153;DHT22;11242;50.536;12.688;2023-04-24T10:43:02;15.20;99.50
22153;DHT22;11242;50.536;12.688;2023-04-24T10:45:28;15.20;97.70
22153;DHT22;11242;50.536;12.688;2023-04-24T10:48:01;14.90;98.30
22153;DHT22;11242;50.536;12.688;2023-04-24T10:50:43;15.00;99.30
22153;DHT22;11242;50.536;12.688;2023-04-24T10:53:17;15.20;97.90
22153;DHT22;11242;50.536;12.688;2023-04-24T10:55:48;15.40;95.90
22153;DHT22;11242;50.536;12.688;2023-04-24T10:58:14;15.20;95.10
22153;DHT22;11242;50.536;12.688;2023-04-24T11:00:42;15.00;94.20
22153;DHT22;11242;50.536;12.688;2023-04-24T11:03:30;14.50;95.00
22153;DHT22;11242;50.536;12.688;2023-04-24T11:06:06;14.40;94.80
22153;DHT22;11242;50.536;12.688;2023-04-24T11:11:15;14.10;95.40
22153;DHT22;11242;50.536;12.688;2023-04-24T11:16:39;14.40;96.30
22153;DHT22;11242;50.536;12.688;2023-04-24T11:21:58;14.80;94.40
22153;DHT22;11242;50.536;12.688;2023-04-24T11:34:48;15.00;95.30
22153;DHT22;11242;50.536;12.688;2023-04-24T11:37:14;15.50;93.90
22153;DHT22;11242;50.536;12.688;2023-04-24T11:39:40;16.00;92.10
22153;DHT22;11242;50.536;12.688;2023-04-24T11:42:07;15.70;90.90
22153;DHT22;11242;50.536;12.688;2023-04-24T11:44:34;14.90;89.30
22153;DHT22;11242;50.536;12.688;2023-04-24T11:47:05;14.60;90.40
22153;DHT22;11242;50.536;12.688;2023-04-24T11:49:32;14.60;90.70
22153;DHT22;11242;50.536;12.688;2023-04-24T11:52:00;14.70;90.60
22153;DHT22;11242;50.536;12.688;2023-04-24T11:54:26;14.80;90.30
22153;DHT22;11242;50.536;12.688;2023-04-24T11:56:52;14.70;87.70
22153;DHT22;11242;50.536;12.688;2023-04-24T11:59:18;14.70;88.30
22153;DHT22;11242;50.536;12.688;2023-04-24T12:01:47;14.50;87.60
22153;DHT22;11242;50.536;12.688;2023-04-24T12:04:15;14.50;88.00
22153;DHT22;11242;50.536;12.688;2023-04-24T12:07:01;14.30;87.80
22153;DHT22;11242;50.536;12.688;2023-04-24T12:09:26;14.40;88.10
22153;DHT22;11242;50.536;12.688;2023-04-24T12:11:53;14.60;89.90
22153;DHT22;11242;50.536;12.688;2023-04-24T12:14:22;14.60;89.90
22153;DHT22;11242;50.536;12.688;2023-04-24T12:16:49;14.50;90.00
22153;DHT22;11242;50.536;12.688;2023-04-24T12:19:22;14.50;90.20
22153;DHT22;11242;50.536;12.688;2023-04-24T12:22:01;14.50;89.10
22153;DHT22;11242;50.536;12.688;2023-04-24T12:24:27;14.70;90.70
22153;DHT22;11242;50.536;12.688;2023-04-24T12:26:52;14.90;88.70
22153;DHT22;11242;50.536;12.688;2023-04-24T12:29:22;14.80;90.00
22153;DHT22;11242;50.536;12.688;2023-04-24T12:31:48;14.70;90.00
22153;DHT22;11242;50.536;12.688;2023-04-24T12:34:21;14.90;90.20
22153;DHT22;11242;50.536;12.688;2023-04-24T12:36:47;14.80;91.30
22153;DHT22;11242;50.536;12.688;2023-04-24T12:39:20;14.50;90.30
22153;DHT22;11242;50.536;12.688;2023-04-24T12:41:58;14.10;91.80
22153;DHT22;11242;50.536;12.688;2023-04-24T12:44:32;14.00;92.20
22153;DHT22;11242;50.536;12.688;2023-04-24T12:47:00;14.30;92.90
22153;DHT22;11242;50.536;12.688;2023-04-24T12:49:26;14.50;92.10
22153;DHT22;11242;50.536;12.688;2023-04-24T12:51:51;14.20;92.60
22153;DHT22;11242;50.536;12.688;2023-04-24T12:54:17;14.00;93.30
22153;DHT22;11242;50.536;12.688;2023-04-24T12:56:43;13.80;93.60
22153;DHT22;11242;50.536;12.688;2023-04-24T12:59:08;13.90;94.50
22153;DHT22;11242;50.536;12.688;2023-04-24T13:01:34;14.00;93.80
22153;DHT22;11242;50.536;12.688;2023-04-24T13:03:59;14.00;93.80
22153;DHT22;11242;50.536;12.688;2023-04-24T13:06:25;13.80;93.90
22153;DHT22;11242;50.536;12.688;2023-04-24T13:08:51;13.90;94.30
22153;DHT22;11242;50.536;12.688;2023-04-24T13:11:17;13.80;94.60
22153;DHT22;11242;50.536;12.688;2023-04-24T13:13:43;13.90;94.80
22153;DHT22;11242;50.536;12.688;2023-04-24T13:16:08;14.10;94.30
22153;DHT22;11242;50.536;12.688;2023-04-24T13:18:34;14.00;94.10
22153;DHT22;11242;50.536;12.688;2023-04-24T13:21:00;14.00;93.90
22153;DHT22;11242;50.536;12.688;2023-04-24T13:23:25;13.70;94.40
22153;DHT22;11242;50.536;12.688;2023-04-24T13:25:51;13.80;94.90
22153;DHT22;11242;50.536;12.688;2023-04-24T13:28:17;13.70;94.70
22153;DHT22;11242;50.536;12.688;2023-04-24T13:30:43;13.90;94.70
22153;DHT22;11242;50.536;12.688;2023-04-24T13:33:08;13.90;94.40
22153;DHT22;11242;50.536;12.688;2023-04-24T13:35:34;13.90;93.60
22153;DHT22;11242;50.536;12.688;2023-04-24T13:38:00;13.60;94.10
22153;DHT22;11242;50.536;12.688;2023-04-24T13:40:27;13.40;93.80
22153;DHT22;11242;50.536;12.688;2023-04-24T13:42:52;13.40;94.10
22153;DHT22;11242;50.536;12.688;2023-04-24T13:45:18;13.40;93.90
22153;DHT22;11242;50.536;12.688;2023-04-24T13:47:43;13.60;94.30
22153;DHT22;11242;50.536;12.688;2023-04-24T13:50:09;13.50;94.10
22153;DHT22;11242;50.536;12.688;2023-04-24T13:52:35;13.40;94.80
22153;DHT22;11242;50.536;12.688;2023-04-24T13:55:01;13.40;96.10
22153;DHT22;11242;50.536;12.688;2023-04-24T13:57:26;13.70;95.90
22153;DHT22;11242;50.536;12.688;2023-04-24T13:59:53;13.90;95.00
22153;DHT22;11242;50.536;12.688;2023-04-24T14:02:20;13.60;95.00
22153;DHT22;11242;50.536;12.688;2023-04-24T14:04:46;13.70;95.40
22153;DHT22;11242;50.536;12.688;2023-04-24T14:07:13;13.60;95.10
22153;DHT22;11242;50.536;12.688;2023-04-24T14:09:39;13.60;95.90
22153;DHT22;11242;50.536;12.688;2023-04-24T14:12:04;13.60;94.80
22153;DHT22;11242;50.536;12.688;2023-04-24T14:14:31;13.80;95.30
22153;DHT22;11242;50.536;12.688;2023-04-24T14:16:57;14.00;94.60
22153;DHT22;11242;50.536;12.688;2023-04-24T14:19:22;13.90;95.20
22153;DHT22;11242;50.536;12.688;2023-04-24T14:21:48;14.00;94.30
22153;DHT22;11242;50.536;12.688;2023-04-24T14:24:13;13.90;94.00
22153;DHT22;11242;50.536;12.688;2023-04-24T14:26:39;13.60;94.10
22153;DHT22;11242;50.536;12.688;2023-04-24T14:29:05;13.50;93.30
22153;DHT22;11242;50.536;12.688;2023-04-24T14:31:31;13.30;94.00
22153;DHT22;11242;50.536;12.688;2023-04-24T14:33:56;13.10;94.00
22153;DHT22;11242;50.536;12.688;2023-04-24T14:36:23;13.10;94.50
22153;DHT22;11242;50.536;12.688;2023-04-24T14:38:49;13.20;95.40
22153;DHT22;11242;50.536;12.688;2023-04-24T14:41:14;13.40;95.10
22153;DHT22;11242;50.536;12.688;2023-04-24T14:43:40;13.50;95.10
22153;DHT22;11242;50.536;12.688;2023-04-24T14:46:06;13.80;95.20
22153;DHT22;11242;50.536;12.688;2023-04-24T14:48:32;13.60;94.00
22153;DHT22;11242;50.536;12.688;2023-04-24T14:50:58;13.40;94.20
22153;DHT22;11242;50.536;12.688;2023-04-24T14:53:24;13.50;93.50
22153;DHT22;11242;50.536;12.688;2023-04-24T14:55:49;13.60;93.80
22153;DHT22;11242;50.536;12.688;2023-04-24T14:58:15;13.50;93.20
22153;DHT22;11242;50.536;12.688;2023-04-24T15:00:40;13.60;93.30
22153;DHT22;11242;50.536;12.688;2023-04-24T15:03:06;13.50;93.00
22153;DHT22;11242;50.536;12.688;2023-04-24T15:05:32;13.20;93.60
22153;DHT22;11242;50.536;12.688;2023-04-24T15:07:58;12.90;94.40
22153;DHT22;11242;50.536;12.688;2023-04-24T15:10:23;12.90;94.50
22153;DHT22;11242;50.536;12.688;2023-04-24T15:12:50;13.00;94.00
22153;DHT22;11242;50.536;12.688;2023-04-24T15:15:16;12.90;94.70
22153;DHT22;11242;50.536;12.688;2023-04-24T15:17:42;13.00;94.60
22153;DHT22;11242;50.536;12.688;2023-04-24T15:20:08;13.10;94.60
22153;DHT22;11242;50.536;12.688;2023-04-24T15:22:33;13.20;93.90
22153;DHT22;11242;50.536;12.688;2023-04-24T15:24:59;13.30;93.10
22153;DHT22;11242;50.536;12.688;2023-04-24T15:27:25;13.40;93.10
22153;DHT22;11242;50.536;12.688;2023-04-24T15:29:50;13.40;92.30
22153;DHT22;11242;50.536;12.688;2023-04-24T15:32:16;13.10;93.20
22153;DHT22;11242;50.536;12.688;2023-04-24T15:34:41;13.20;93.70
22153;DHT22;11242;50.536;12.688;2023-04-24T15:37:07;13.10;94.60
22153;DHT22;11242;50.536;12.688;2023-04-24T15:39:33;13.10;93.30
22153;DHT22;11242;50.536;12.688;2023-04-24T15:41:59;13.10;93.40
22153;DHT22;11242;50.536;12.688;2023-04-24T15:44:25;12.90;93.80